sensor_id;sensor_type;location;lat;lon;timestamp;temperature;humidity
20155;DHT22;10238;49.556;10.956;2023-02-23T00:01:18;7.70;99.90
20155;DHT22;10238;49.556;10.956;2023-02-23T00:04:08;7.60;99.90
20155;DHT22;10238;49.556;10.956;2023-02-23T00:06:55;7.60;99.90
20155;DHT22;10238;49.556;10.956;2023-02-23T00:09:44;7.60;99.90
20155;DHT22;10238;49.556;10.956;2023-02-23T00:12:32;7.60;99.90
20155;DHT22;10238;49.556;10.956;2023-02-23T00:15:19;7.50;99.90
20155;DHT22;10238;49.556;10.956;2023-02-23T00:18:07;7.50;99.90
20155;DHT22;10238;49.556;10.956;2023-02-23T00:20:55;7.40;99.90
20155;DHT22;10238;49.556;10.956;2023-02-23T00:23:47;7.40;99.90
20155;DHT22;10238;49.556;10.956;2023-02-23T00:26:38;7.40;99.90
20155;DHT22;10238;49.556;10.956;2023-02-23T00:29:27;7.50;99.90
20155;DHT22;10238;49.556;10.956;2023-02-23T00:32:17;7.30;99.90
20155;DHT22;10238;49.556;10.956;2023-02-23T00:35:06;7.40;99.90
20155;DHT22;10238;49.556;10.956;2023-02-23T00:38:01;7.30;99.90
20155;DHT22;10238;49.556;10.956;2023-02-23T00:40:49;7.30;99.90
20155;DHT22;10238;49.556;10.956;2023-02-23T00:43:39;7.40;99.90
20155;DHT22;10238;49.556;10.956;2023-02-23T00:46:32;7.30;99.90
20155;DHT22;10238;49.556;10.956;2023-02-23T00:49:21;7.30;99.90
20155;DHT22;10238;49.556;10.956;2023-02-23T00:52:08;7.30;99.90
20155;DHT22;10238;49.556;10.956;2023-02-23T00:54:56;7.30;99.90
20155;DHT22;10238;49.556;10.956;2023-02-23T00:57:43;7.30;99.90
20155;DHT22;10238;49.556;10.956;2023-02-23T01:00:33;7.20;99.90
20155;DHT22;10238;49.556;10.956;2023-02-23T01:03:28;7.20;99.90
20155;DHT22;10238;49.556;10.956;2023-02-23T01:06:16;7.20;99.90
20155;DHT22;10238;49.556;10.956;2023-02-23T01:09:06;7.20;99.90
20155;DHT22;10238;49.556;10.956;2023-02-23T01:11:55;7.20;99.90
20155;DHT22;10238;49.556;10.956;2023-02-23T01:14:46;7.30;99.90
20155;DHT22;10238;49.556;10.956;2023-02-23T01:17:35;7.20;99.90
20155;DHT22;10238;49.556;10.956;2023-02-23T01:20:22;7.20;99.90
20155;DHT22;10238;49.556;10.956;2023-02-23T01:23:13;7.30;99.90
20155;DHT22;10238;49.556;10.956;2023-02-23T01:26:01;7.10;99.90
20155;DHT22;10238;49.556;10.956;2023-02-23T01:28:49;7.20;99.90
20155;DHT22;10238;49.556;10.956;2023-02-23T01:31:39;7.20;99.90
20155;DHT22;10238;49.556;10.956;2023-02-23T01:34:30;7.10;99.90
20155;DHT22;10238;49.556;10.956;2023-02-23T01:37:18;7.10;99.90
20155;DHT22;10238;49.556;10.956;2023-02-23T01:40:07;7.20;99.90
20155;DHT22;10238;49.556;10.956;2023-02-23T01:43:11;7.10;99.90
20155;DHT22;10238;49.556;10.956;2023-02-23T01:46:00;7.10;99.90
20155;DHT22;10238;49.556;10.956;2023-02-23T01:48:48;7.10;99.90
20155;DHT22;10238;49.556;10.956;2023-02-23T01:51:42;7.10;99.90
20155;DHT22;10238;49.556;10.956;2023-02-23T01:54:36;7.10;99.90
20155;DHT22;10238;49.556;10.956;2023-02-23T01:57:26;7.00;99.90
20155;DHT22;10238;49.556;10.956;2023-02-23T02:00:14;7.00;99.90
20155;DHT22;10238;49.556;10.956;2023-02-23T02:03:08;7.00;99.90
20155;DHT22;10238;49.556;10.956;2023-02-23T02:06:02;7.00;99.90
20155;DHT22;10238;49.556;10.956;2023-02-23T02:08:54;6.90;99.90
20155;DHT22;10238;49.556;10.956;2023-02-23T02:11:45;7.00;99.90
20155;DHT22;10238;49.556;10.956;2023-02-23T02:14:39;6.90;99.90
20155;DHT22;10238;49.556;10.956;2023-02-23T02:17:35;6.90;99.90
20155;DHT22;10238;49.556;10.956;2023-02-23T02:20:51;6.80;99.90
20155;DHT22;10238;49.556;10.956;2023-02-23T02:31:50;6.80;99.90
20155;DHT22;10238;49.556;10.956;2023-02-23T02:35:14;6.80;99.90
20155;DHT22;10238;49.556;10.956;2023-02-23T02:38:46;6.80;99.90
20155;DHT22;10238;49.556;10.956;2023-02-23T02:41:45;6.80;99.90
20155;DHT22;10238;49.556;10.956;2023-02-23T02:44:47;6.70;99.90
20155;DHT22;10238;49.556;10.956;2023-02-23T02:47:44;6.70;99.90
20155;DHT22;10238;49.556;10.956;2023-02-23T02:50:42;6.70;99.90
20155;DHT22;10238;49.556;10.956;2023-02-23T02:53:40;6.70;99.90
20155;DHT22;10238;49.556;10.956;2023-02-23T02:56:37;6.70;99.90
20155;DHT22;10238;49.556;10.956;2023-02-23T02:59:27;6.70;99.90
20155;DHT22;10238;49.556;10.956;2023-02-23T03:02:34;6.60;99.90
20155;DHT22;10238;49.556;10.956;2023-02-23T03:05:43;6.70;99.90
20155;DHT22;10238;49.556;10.956;2023-02-23T03:08:59;6.60;99.90
20155;DHT22;10238;49.556;10.956;2023-02-23T03:12:16;6.60;99.90
20155;DHT22;10238;49.556;10.956;2023-02-23T03:15:37;6.60;99.90
20155;DHT22;10238;49.556;10.956;2023-02-23T03:19:07;6.60;99.90
20155;DHT22;10238;49.556;10.956;2023-02-23T03:22:22;6.70;99.90
20155;DHT22;10238;49.556;10.956;2023-02-23T03:25:40;6.50;99.90
20155;DHT22;10238;49.556;10.956;2023-02-23T03:28:58;6.50;99.90
20155;DHT22;10238;49.556;10.956;2023-02-23T03:32:11;6.40;99.90
20155;DHT22;10238;49.556;10.956;2023-02-23T03:35:25;6.50;99.90
20155;DHT22;10238;49.556;10.956;2023-02-23T03:38:36;6.40;99.90
20155;DHT22;10238;49.556;10.956;2023-02-23T03:41:48;6.30;99.90
20155;DHT22;10238;49.556;10.956;2023-02-23T03:44:58;6.30;99.90
20155;DHT22;10238;49.556;10.956;2023-02-23T03:48:10;6.30;99.90
20155;DHT22;10238;49.556;10.956;2023-02-23T03:51:19;6.20;99.90
20155;DHT22;10238;49.556;10.956;2023-02-23T03:54:32;6.30;99.90
20155;DHT22;10238;49.556;10.956;2023-02-23T03:57:41;6.00;99.90
20155;DHT22;10238;49.556;10.956;2023-02-23T04:00:52;6.20;99.90
20155;DHT22;10238;49.556;10.956;2023-02-23T04:04:03;6.20;99.90
20155;DHT22;10238;49.556;10.956;2023-02-23T04:07:13;6.10;99.90
20155;DHT22;10238;49.556;10.956;2023-02-23T04:10:22;6.10;99.90
20155;DHT22;10238;49.556;10.956;2023-02-23T04:13:32;6.20;99.90
20155;DHT22;10238;49.556;10.956;2023-02-23T04:16:24;6.00;99.90
20155;DHT22;10238;49.556;10.956;2023-02-23T04:19:10;6.00;99.90
20155;DHT22;10238;49.556;10.956;2023-02-23T04:21:58;5.90;99.90
20155;DHT22;10238;49.556;10.956;2023-02-23T04:24:46;5.90;99.90
20155;DHT22;10238;49.556;10.956;2023-02-23T04:27:34;6.00;99.90
20155;DHT22;10238;49.556;10.956;2023-02-23T04:30:22;5.90;99.90
20155;DHT22;10238;49.556;10.956;2023-02-23T04:33:12;5.90;99.90
20155;DHT22;10238;49.556;10.956;2023-02-23T04:36:00;5.90;99.90
20155;DHT22;10238;49.556;10.956;2023-02-23T04:38:48;5.80;99.90
20155;DHT22;10238;49.556;10.956;2023-02-23T04:41:35;5.80;99.90
20155;DHT22;10238;49.556;10.956;2023-02-23T04:44:23;5.70;99.90
20155;DHT22;10238;49.556;10.956;2023-02-23T04:47:11;5.80;99.90
20155;DHT22;10238;49.556;10.956;2023-02-23T04:50:03;5.70;99.90
20155;DHT22;10238;49.556;10.956;2023-02-23T04:52:51;5.60;99.90
20155;DHT22;10238;49.556;10.956;2023-02-23T04:55:38;5.60;99.90
20155;DHT22;10238;49.556;10.956;2023-02-23T04:58:26;5.50;99.90
20155;DHT22;10238;49.556;10.956;2023-02-23T05:01:13;5.50;99.90
20155;DHT22;10238;49.556;10.956;2023-02-23T05:04:01;5.50;99.90
20155;DHT22;10238;49.556;10.956;2023-02-23T05:06:50;5.50;99.90
20155;DHT22;10238;49.556;10.956;2023-02-23T05:09:38;5.40;99.90
20155;DHT22;10238;49.556;10.956;2023-02-23T05:12:26;5.40;99.90
20155;DHT22;10238;49.556;10.956;2023-02-23T05:15:14;5.30;99.90
20155;DHT22;10238;49.556;10.956;2023-02-23T05:18:02;5.30;99.90
20155;DHT22;10238;49.556;10.956;2023-02-23T05:20:50;5.30;99.90
20155;DHT22;10238;49.556;10.956;2023-02-23T05:23:39;5.30;99.90
20155;DHT22;10238;49.556;10.956;2023-02-23T05:26:27;5.30;99.90
20155;DHT22;10238;49.556;10.956;2023-02-23T05:29:14;5.20;99.90
20155;DHT22;10238;49.556;10.956;2023-02-23T05:32:02;5.20;99.90
20155;DHT22;10238;49.556;10.956;2023-02-23T05:34:50;5.20;99.90
20155;DHT22;10238;49.556;10.956;2023-02-23T05:37:38;5.20;99.90
20155;DHT22;10238;49.556;10.956;2023-02-23T05:40:26;5.20;99.90
20155;DHT22;10238;49.556;10.956;2023-02-23T05:43:14;5.10;99.90
20155;DHT22;10238;49.556;10.956;2023-02-23T05:46:05;5.20;99.90
20155;DHT22;10238;49.556;10.956;2023-02-23T05:48:55;5.20;99.90
20155;DHT22;10238;49.556;10.956;2023-02-23T05:51:45;5.10;99.90
20155;DHT22;10238;49.556;10.956;2023-02-23T05:54:33;5.10;99.90
20155;DHT22;10238;49.556;10.956;2023-02-23T05:57:22;5.20;99.90
20155;DHT22;10238;49.556;10.956;2023-02-23T06:00:11;5.30;99.90
20155;DHT22;10238;49.556;10.956;2023-02-23T06:02:59;5.40;99.90
20155;DHT22;10238;49.556;10.956;2023-02-23T06:05:49;5.50;99.90
20155;DHT22;10238;49.556;10.956;2023-02-23T06:08:38;5.50;99.90
20155;DHT22;10238;49.556;10.956;2023-02-23T06:11:26;5.50;99.90
20155;DHT22;10238;49.556;10.956;2023-02-23T06:14:14;5.40;99.90
20155;DHT22;10238;49.556;10.956;2023-02-23T06:17:02;5.50;99.90
20155;DHT22;10238;49.556;10.956;2023-02-23T06:19:50;5.50;99.90
20155;DHT22;10238;49.556;10.956;2023-02-23T06:22:38;5.50;99.90
20155;DHT22;10238;49.556;10.956;2023-02-23T06:25:25;5.60;99.90
20155;DHT22;10238;49.556;10.956;2023-02-23T06:28:14;5.70;99.90
20155;DHT22;10238;49.556;10.956;2023-02-23T06:31:03;5.70;99.90
20155;DHT22;10238;49.556;10.956;2023-02-23T06:33:52;5.60;99.90
20155;DHT22;10238;49.556;10.956;2023-02-23T06:36:39;5.60;99.90
20155;DHT22;10238;49.556;10.956;2023-02-23T06:39:27;5.70;99.90
20155;DHT22;10238;49.556;10.956;2023-02-23T06:42:14;5.80;99.90
20155;DHT22;10238;49.556;10.956;2023-02-23T06:45:02;5.90;99.90
20155;DHT22;10238;49.556;10.956;2023-02-23T06:47:51;5.80;99.90
20155;DHT22;10238;49.556;10.956;2023-02-23T06:50:39;5.70;99.90
20155;DHT22;10238;49.556;10.956;2023-02-23T06:53:28;5.70;99.90
20155;DHT22;10238;49.556;10.956;2023-02-23T06:56:17;5.70;99.90
20155;DHT22;10238;49.556;10.956;2023-02-23T06:59:04;5.90;99.90
20155;DHT22;10238;49.556;10.956;2023-02-23T07:01:52;6.00;99.90
20155;DHT22;10238;49.556;10.956;2023-02-23T07:04:41;6.00;99.90
20155;DHT22;10238;49.556;10.956;2023-02-23T07:07:31;6.10;99.90
20155;DHT22;10238;49.556;10.956;2023-02-23T07:10:19;6.20;99.90
20155;DHT22;10238;49.556;10.956;2023-02-23T07:13:07;6.10;99.90
20155;DHT22;10238;49.556;10.956;2023-02-23T07:15:56;6.10;99.90
20155;DHT22;10238;49.556;10.956;2023-02-23T07:18:44;6.30;99.90
20155;DHT22;10238;49.556;10.956;2023-02-23T07:21:33;6.30;99.90
20155;DHT22;10238;49.556;10.956;2023-02-23T07:24:21;6.70;99.90
20155;DHT22;10238;49.556;10.956;2023-02-23T07:27:08;6.40;99.90
20155;DHT22;10238;49.556;10.956;2023-02-23T07:29:56;6.50;99.90
20155;DHT22;10238;49.556;10.956;2023-02-23T07:32:45;6.50;99.90
20155;DHT22;10238;49.556;10.956;2023-02-23T07:35:33;6.60;99.90
20155;DHT22;10238;49.556;10.956;2023-02-23T07:38:22;6.70;99.90
20155;DHT22;10238;49.556;10.956;2023-02-23T07:41:09;6.60;99.90
20155;DHT22;10238;49.556;10.956;2023-02-23T07:43:58;6.70;99.90
20155;DHT22;10238;49.556;10.956;2023-02-23T07:46:46;6.70;99.90
20155;DHT22;10238;49.556;10.956;2023-02-23T07:49:34;6.90;99.90
20155;DHT22;10238;49.556;10.956;2023-02-23T07:52:22;6.80;99.90
20155;DHT22;10238;49.556;10.956;2023-02-23T07:55:11;6.80;99.90
20155;DHT22;10238;49.556;10.956;2023-02-23T07:57:59;6.80;99.90
20155;DHT22;10238;49.556;10.956;2023-02-23T08:00:47;7.00;99.90
20155;DHT22;10238;49.556;10.956;2023-02-23T08:03:35;7.00;99.90
20155;DHT22;10238;49.556;10.956;2023-02-23T08:06:24;6.90;99.90
20155;DHT22;10238;49.556;10.956;2023-02-23T08:09:11;6.70;99.90
20155;DHT22;10238;49.556;10.956;2023-02-23T08:12:02;7.10;99.90
20155;DHT22;10238;49.556;10.956;2023-02-23T08:14:50;7.20;99.90
20155;DHT22;10238;49.556;10.956;2023-02-23T08:17:39;7.20;99.90
20155;DHT22;10238;49.556;10.956;2023-02-23T08:20:27;7.40;99.90
20155;DHT22;10238;49.556;10.956;2023-02-23T08:23:16;7.40;99.90
20155;DHT22;10238;49.556;10.956;2023-02-23T08:26:04;7.50;99.90
20155;DHT22;10238;49.556;10.956;2023-02-23T08:28:53;7.60;99.90
20155;DHT22;10238;49.556;10.956;2023-02-23T08:31:41;7.70;99.90
20155;DHT22;10238;49.556;10.956;2023-02-23T08:34:29;7.90;99.90
20155;DHT22;10238;49.556;10.956;2023-02-23T08:37:20;7.70;99.90
20155;DHT22;10238;49.556;10.956;2023-02-23T08:40:12;7.80;99.90
20155;DHT22;10238;49.556;10.956;2023-02-23T08:43:01;7.90;99.90
20155;DHT22;10238;49.556;10.956;2023-02-23T08:45:51;7.90;99.90
20155;DHT22;10238;49.556;10.956;2023-02-23T08:48:39;8.00;99.90
20155;DHT22;10238;49.556;10.956;2023-02-23T08:51:26;8.00;99.90
20155;DHT22;10238;49.556;10.956;2023-02-23T08:54:14;8.10;99.90
20155;DHT22;10238;49.556;10.956;2023-02-23T08:57:02;8.10;99.90
20155;DHT22;10238;49.556;10.956;2023-02-23T08:59:50;8.00;99.90
20155;DHT22;10238;49.556;10.956;2023-02-23T09:02:39;8.00;99.90
20155;DHT22;10238;49.556;10.956;2023-02-23T09:05:27;8.20;99.90
20155;DHT22;10238;49.556;10.956;2023-02-23T09:08:18;8.10;99.90
20155;DHT22;10238;49.556;10.956;2023-02-23T09:11:06;8.20;99.90
20155;DHT22;10238;49.556;10.956;2023-02-23T09:13:54;8.10;99.90
20155;DHT22;10238;49.556;10.956;2023-02-23T09:16:41;8.00;99.90
20155;DHT22;10238;49.556;10.956;2023-02-23T09:19:31;8.20;99.90
20155;DHT22;10238;49.556;10.956;2023-02-23T09:22:19;8.20;99.90
20155;DHT22;10238;49.556;10.956;2023-02-23T09:25:07;8.30;99.90
20155;DHT22;10238;49.556;10.956;2023-02-23T09:27:56;8.30;99.90
20155;DHT22;10238;49.556;10.956;2023-02-23T09:30:45;8.20;99.90
20155;DHT22;10238;49.556;10.956;2023-02-23T09:33:33;8.30;99.90
20155;DHT22;10238;49.556;10.956;2023-02-23T09:36:24;8.30;99.90
20155;DHT22;10238;49.556;10.956;2023-02-23T09:39:12;8.40;99.90
20155;DHT22;10238;49.556;10.956;2023-02-23T09:42:15;8.30;99.90
20155;DHT22;10238;49.556;10.956;2023-02-23T09:45:25;8.40;99.90
20155;DHT22;10238;49.556;10.956;2023-02-23T09:48:22;8.50;99.90
20155;DHT22;10238;49.556;10.956;2023-02-23T09:51:16;8.50;99.90
20155;DHT22;10238;49.556;10.956;2023-02-23T09:54:11;8.60;99.90
20155;DHT22;10238;49.556;10.956;2023-02-23T09:57:06;8.40;99.90
20155;DHT22;10238;49.556;10.956;2023-02-23T10:00:00;8.60;99.90
20155;DHT22;10238;49.556;10.956;2023-02-23T10:03:12;8.50;99.90
20155;DHT22;10238;49.556;10.956;2023-02-23T10:06:10;8.70;99.90
20155;DHT22;10238;49.556;10.956;2023-02-23T10:09:14;8.60;99.90
20155;DHT22;10238;49.556;10.956;2023-02-23T10:12:12;8.80;99.90
20155;DHT22;10238;49.556;10.956;2023-02-23T10:15:15;8.90;99.90
20155;DHT22;10238;49.556;10.956;2023-02-23T10:18:19;8.90;99.90
20155;DHT22;10238;49.556;10.956;2023-02-23T10:21:34;9.00;99.90
20155;DHT22;10238;49.556;10.956;2023-02-23T10:24:29;9.00;99.90
20155;DHT22;10238;49.556;10.956;2023-02-23T10:27:25;9.20;99.90
20155;DHT22;10238;49.556;10.956;2023-02-23T10:30:21;9.10;99.90
20155;DHT22;10238;49.556;10.956;2023-02-23T10:33:13;9.20;99.90
20155;DHT22;10238;49.556;10.956;2023-02-23T10:36:12;9.10;99.90
20155;DHT22;10238;49.556;10.956;2023-02-23T10:39:06;9.20;99.90
20155;DHT22;10238;49.556;10.956;2023-02-23T10:41:57;9.30;99.90
20155;DHT22;10238;49.556;10.956;2023-02-23T10:44:48;9.40;99.90
20155;DHT22;10238;49.556;10.956;2023-02-23T10:47:36;9.50;99.90
20155;DHT22;10238;49.556;10.956;2023-02-23T10:50:25;9.50;99.90
20155;DHT22;10238;49.556;10.956;2023-02-23T10:53:17;9.50;99.90
20155;DHT22;10238;49.556;10.956;2023-02-23T10:56:10;9.70;99.90
20155;DHT22;10238;49.556;10.956;2023-02-23T10:59:01;9.70;99.90
20155;DHT22;10238;49.556;10.956;2023-02-23T11:01:49;9.80;99.90
20155;DHT22;10238;49.556;10.956;2023-02-23T11:04:53;10.00;99.90
20155;DHT22;10238;49.556;10.956;2023-02-23T11:07:43;9.90;99.90
20155;DHT22;10238;49.556;10.956;2023-02-23T11:10:30;9.90;99.90
20155;DHT22;10238;49.556;10.956;2023-02-23T11:13:21;9.80;99.90
20155;DHT22;10238;49.556;10.956;2023-02-23T11:16:12;9.90;99.90
20155;DHT22;10238;49.556;10.956;2023-02-23T11:19:04;10.00;99.90
20155;DHT22;10238;49.556;10.956;2023-02-23T11:22:03;10.10;99.90
20155;DHT22;10238;49.556;10.956;2023-02-23T11:24:52;10.10;99.90
20155;DHT22;10238;49.556;10.956;2023-02-23T11:27:45;10.30;99.90
20155;DHT22;10238;49.556;10.956;2023-02-23T11:30:36;10.30;99.90
20155;DHT22;10238;49.556;10.956;2023-02-23T11:33:32;10.30;99.90
20155;DHT22;10238;49.556;10.956;2023-02-23T11:36:27;10.30;99.90
20155;DHT22;10238;49.556;10.956;2023-02-23T11:39:19;10.40;99.90
20155;DHT22;10238;49.556;10.956;2023-02-23T11:42:15;10.30;99.90
20155;DHT22;10238;49.556;10.956;2023-02-23T11:45:14;10.30;99.90
20155;DHT22;10238;49.556;10.956;2023-02-23T11:48:05;10.40;99.90
20155;DHT22;10238;49.556;10.956;2023-02-23T11:50:56;10.20;99.90
20155;DHT22;10238;49.556;10.956;2023-02-23T11:53:46;10.30;99.90
20155;DHT22;10238;49.556;10.956;2023-02-23T11:56:34;10.30;99.90
20155;DHT22;10238;49.556;10.956;2023-02-23T11:59:27;10.40;99.90
20155;DHT22;10238;49.556;10.956;2023-02-23T12:02:21;10.40;99.90
20155;DHT22;10238;49.556;10.956;2023-02-23T12:05:19;10.50;99.90
20155;DHT22;10238;49.556;10.956;2023-02-23T12:08:14;10.20;99.90
20155;DHT22;10238;49.556;10.956;2023-02-23T12:11:10;10.30;99.90
20155;DHT22;10238;49.556;10.956;2023-02-23T12:14:09;10.40;99.90
20155;DHT22;10238;49.556;10.956;2023-02-23T12:17:07;10.40;99.90
20155;DHT22;10238;49.556;10.956;2023-02-23T12:20:16;10.40;99.90
20155;DHT22;10238;49.556;10.956;2023-02-23T12:23:14;10.40;99.90
20155;DHT22;10238;49.556;10.956;2023-02-23T12:26:09;10.30;99.90
20155;DHT22;10238;49.556;10.956;2023-02-23T12:29:04;10.40;99.90
20155;DHT22;10238;49.556;10.956;2023-02-23T12:32:08;10.40;99.90
20155;DHT22;10238;49.556;10.956;2023-02-23T12:35:02;10.60;99.90
20155;DHT22;10238;49.556;10.956;2023-02-23T12:38:00;10.40;99.90
20155;DHT22;10238;49.556;10.956;2023-02-23T12:40:55;10.50;99.90
20155;DHT22;10238;49.556;10.956;2023-02-23T12:43:49;10.40;99.90
20155;DHT22;10238;49.556;10.956;2023-02-23T12:46:45;10.50;99.90
20155;DHT22;10238;49.556;10.956;2023-02-23T12:49:42;10.50;99.90
20155;DHT22;10238;49.556;10.956;2023-02-23T12:52:36;10.60;99.90
20155;DHT22;10238;49.556;10.956;2023-02-23T12:55:32;10.60;99.90
20155;DHT22;10238;49.556;10.956;2023-02-23T12:58:33;10.70;99.90
20155;DHT22;10238;49.556;10.956;2023-02-23T13:01:35;10.70;99.90
20155;DHT22;10238;49.556;10.956;2023-02-23T13:04:56;11.00;99.90
20155;DHT22;10238;49.556;10.956;2023-02-23T13:08:06;10.90;99.90
20155;DHT22;10238;49.556;10.956;2023-02-23T13:11:11;10.80;99.90
20155;DHT22;10238;49.556;10.956;2023-02-23T13:14:15;11.00;99.90
20155;DHT22;10238;49.556;10.956;2023-02-23T13:17:26;11.00;99.90
20155;DHT22;10238;49.556;10.956;2023-02-23T13:20:22;11.20;99.90
20155;DHT22;10238;49.556;10.956;2023-02-23T13:23:25;11.20;99.90
20155;DHT22;10238;49.556;10.956;2023-02-23T13:26:22;11.20;99.90
20155;DHT22;10238;49.556;10.956;2023-02-23T13:29:25;11.40;99.90
20155;DHT22;10238;49.556;10.956;2023-02-23T13:32:21;11.30;99.90
20155;DHT22;10238;49.556;10.956;2023-02-23T13:35:13;11.20;99.90
20155;DHT22;10238;49.556;10.956;2023-02-23T13:38:12;11.10;99.90
20155;DHT22;10238;49.556;10.956;2023-02-23T13:41:13;11.30;99.90
20155;DHT22;10238;49.556;10.956;2023-02-23T13:44:20;11.20;99.90
20155;DHT22;10238;49.556;10.956;2023-02-23T13:47:19;11.40;99.90
20155;DHT22;10238;49.556;10.956;2023-02-23T13:50:24;11.20;99.90
20155;DHT22;10238;49.556;10.956;2023-02-23T13:53:37;11.50;99.90
20155;DHT22;10238;49.556;10.956;2023-02-23T13:56:28;11.40;99.90
20155;DHT22;10238;49.556;10.956;2023-02-23T13:59:22;11.40;99.90
20155;DHT22;10238;49.556;10.956;2023-02-23T14:02:24;11.30;99.90
20155;DHT22;10238;49.556;10.956;2023-02-23T14:05:23;11.40;99.90
20155;DHT22;10238;49.556;10.956;2023-02-23T14:08:21;11.30;99.90
20155;DHT22;10238;49.556;10.956;2023-02-23T14:14:41;11.20;99.90
20155;DHT22;10238;49.556;10.956;2023-02-23T14:17:40;11.20;99.90
20155;DHT22;10238;49.556;10.956;2023-02-23T14:20:43;11.30;99.90
20155;DHT22;10238;49.556;10.956;2023-02-23T14:24:04;11.20;99.90
20155;DHT22;10238;49.556;10.956;2023-02-23T14:27:31;11.10;99.90
20155;DHT22;10238;49.556;10.956;2023-02-23T14:30:29;11.10;99.90
20155;DHT22;10238;49.556;10.956;2023-02-23T14:33:47;11.10;99.90
20155;DHT22;10238;49.556;10.956;2023-02-23T14:36:41;11.10;99.90
20155;DHT22;10238;49.556;10.956;2023-02-23T14:39:32;11.30;99.90
20155;DHT22;10238;49.556;10.956;2023-02-23T14:42:23;11.20;99.90
20155;DHT22;10238;49.556;10.956;2023-02-23T14:45:17;11.40;99.90
20155;DHT22;10238;49.556;10.956;2023-02-23T14:48:12;11.30;99.90
20155;DHT22;10238;49.556;10.956;2023-02-23T14:51:14;11.30;99.90
20155;DHT22;10238;49.556;10.956;2023-02-23T14:54:12;11.30;99.90
20155;DHT22;10238;49.556;10.956;2023-02-23T14:57:17;11.20;99.90
20155;DHT22;10238;49.556;10.956;2023-02-23T15:00:14;11.40;99.90
20155;DHT22;10238;49.556;10.956;2023-02-23T15:03:10;11.20;99.90
20155;DHT22;10238;49.556;10.956;2023-02-23T15:05:59;11.30;99.90
20155;DHT22;10238;49.556;10.956;2023-02-23T15:08:47;11.40;99.90
20155;DHT22;10238;49.556;10.956;2023-02-23T15:11:35;11.20;99.90
20155;DHT22;10238;49.556;10.956;2023-02-23T15:14:23;11.30;99.90
20155;DHT22;10238;49.556;10.956;2023-02-23T15:17:16;11.20;99.90
20155;DHT22;10238;49.556;10.956;2023-02-23T15:20:12;11.20;99.90
20155;DHT22;10238;49.556;10.956;2023-02-23T15:23:03;11.00;99.90
20155;DHT22;10238;49.556;10.956;2023-02-23T15:25:52;11.10;99.90
20155;DHT22;10238;49.556;10.956;2023-02-23T15:28:40;11.10;99.90
20155;DHT22;10238;49.556;10.956;2023-02-23T15:31:30;11.10;99.90
20155;DHT22;10238;49.556;10.956;2023-02-23T15:34:21;11.20;99.90
20155;DHT22;10238;49.556;10.956;2023-02-23T15:37:18;11.20;99.90
20155;DHT22;10238;49.556;10.956;2023-02-23T15:40:14;11.30;99.90
20155;DHT22;10238;49.556;10.956;2023-02-23T15:43:07;11.20;99.90
20155;DHT22;10238;49.556;10.956;2023-02-23T15:45:59;11.10;99.90
20155;DHT22;10238;49.556;10.956;2023-02-23T15:48:51;11.20;99.90
20155;DHT22;10238;49.556;10.956;2023-02-23T15:51:42;11.10;99.90
20155;DHT22;10238;49.556;10.956;2023-02-23T15:54:39;11.20;99.90
20155;DHT22;10238;49.556;10.956;2023-02-23T15:57:43;11.00;99.90
20155;DHT22;10238;49.556;10.956;2023-02-23T16:00:37;11.00;99.90
20155;DHT22;10238;49.556;10.956;2023-02-23T16:03:29;11.10;99.90
20155;DHT22;10238;49.556;10.956;2023-02-23T16:06:22;11.00;99.90
20155;DHT22;10238;49.556;10.956;2023-02-23T16:09:12;11.00;99.90
20155;DHT22;10238;49.556;10.956;2023-02-23T16:12:12;10.90;99.90
20155;DHT22;10238;49.556;10.956;2023-02-23T16:15:23;10.90;99.90
20155;DHT22;10238;49.556;10.956;2023-02-23T16:18:14;10.90;99.90
20155;DHT22;10238;49.556;10.956;2023-02-23T16:21:05;10.80;99.90
20155;DHT22;10238;49.556;10.956;2023-02-23T16:23:54;10.90;99.90
20155;DHT22;10238;49.556;10.956;2023-02-23T16:26:46;10.80;99.90
20155;DHT22;10238;49.556;10.956;2023-02-23T16:29:38;10.90;99.90
20155;DHT22;10238;49.556;10.956;2023-02-23T16:32:34;10.60;99.90
20155;DHT22;10238;49.556;10.956;2023-02-23T16:35:23;10.70;99.90
20155;DHT22;10238;49.556;10.956;2023-02-23T16:38:13;10.60;99.90
20155;DHT22;10238;49.556;10.956;2023-02-23T16:41:13;10.70;99.90
20155;DHT22;10238;49.556;10.956;2023-02-23T16:44:06;10.70;99.90
20155;DHT22;10238;49.556;10.956;2023-02-23T16:47:30;10.50;99.90
20155;DHT22;10238;49.556;10.956;2023-02-23T16:50:23;10.60;99.90
20155;DHT22;10238;49.556;10.956;2023-02-23T16:53:12;10.50;99.90
20155;DHT22;10238;49.556;10.956;2023-02-23T16:56:02;10.40;99.90
20155;DHT22;10238;49.556;10.956;2023-02-23T16:59:00;10.40;99.90
20155;DHT22;10238;49.556;10.956;2023-02-23T17:01:49;10.50;99.90
20155;DHT22;10238;49.556;10.956;2023-02-23T17:04:39;10.30;99.90
20155;DHT22;10238;49.556;10.956;2023-02-23T17:07:34;10.40;99.90
20155;DHT22;10238;49.556;10.956;2023-02-23T17:10:24;10.20;99.90
20155;DHT22;10238;49.556;10.956;2023-02-23T17:13:16;10.20;99.90
20155;DHT22;10238;49.556;10.956;2023-02-23T17:16:09;10.10;99.90
20155;DHT22;10238;49.556;10.956;2023-02-23T17:18:59;10.10;99.90
20155;DHT22;10238;49.556;10.956;2023-02-23T17:21:51;10.00;99.90
20155;DHT22;10238;49.556;10.956;2023-02-23T17:24:39;10.10;99.90
20155;DHT22;10238;49.556;10.956;2023-02-23T17:27:28;9.90;99.90
20155;DHT22;10238;49.556;10.956;2023-02-23T17:30:16;9.90;99.90
20155;DHT22;10238;49.556;10.956;2023-02-23T17:33:05;9.80;99.90
20155;DHT22;10238;49.556;10.956;2023-02-23T17:35:53;9.80;99.90
20155;DHT22;10238;49.556;10.956;2023-02-23T17:38:43;9.80;99.90
20155;DHT22;10238;49.556;10.956;2023-02-23T17:41:31;9.70;99.90
20155;DHT22;10238;49.556;10.956;2023-02-23T17:44:19;9.70;99.90
20155;DHT22;10238;49.556;10.956;2023-02-23T17:47:07;9.70;99.90
20155;DHT22;10238;49.556;10.956;2023-02-23T17:49:54;9.90;99.90
20155;DHT22;10238;49.556;10.956;2023-02-23T17:52:43;9.70;99.90
20155;DHT22;10238;49.556;10.956;2023-02-23T17:55:33;9.80;99.90
20155;DHT22;10238;49.556;10.956;2023-02-23T17:58:27;9.60;99.90
20155;DHT22;10238;49.556;10.956;2023-02-23T18:01:16;9.50;99.90
20155;DHT22;10238;49.556;10.956;2023-02-23T18:04:04;9.60;99.90
20155;DHT22;10238;49.556;10.956;2023-02-23T18:06:53;9.50;99.90
20155;DHT22;10238;49.556;10.956;2023-02-23T18:09:41;9.50;99.90
20155;DHT22;10238;49.556;10.956;2023-02-23T18:12:31;9.50;99.90
20155;DHT22;10238;49.556;10.956;2023-02-23T18:15:19;9.50;99.90
20155;DHT22;10238;49.556;10.956;2023-02-23T18:18:08;9.50;99.90
20155;DHT22;10238;49.556;10.956;2023-02-23T18:20:57;9.30;99.90
20155;DHT22;10238;49.556;10.956;2023-02-23T18:23:46;9.30;99.90